Time;durP1;ratioP1;P1;durP2;ratioP2;P2;SDS_P1;SDS_P2;PMS_P1;PMS_P2;Temp;Humidity;BMP_temperature;BMP_pressure;BME280_temperature;BME280_humidity;BME280_pressure;Samples;Min_cycle;Max_cycle;Signal;HPM_P1;HPM_P2
2022/07/02 00:01:05;;;;;;;6.05;2.83;;;17.20;91.80;;;;;;5051748;28;20315;-72
2022/07/02 00:03:36;;;;;;;2.17;1.20;;;17.20;91.90;;;;;;5052365;28;20032;-73
2022/07/02 00:06:06;;;;;;;3.88;1.50;;;17.10;91.90;;;;;;5051809;28;20044;-73
2022/07/02 00:08:33;;;;;;;3.42;1.10;;;17.10;92.00;;;;;;5051645;28;20035;-73
2022/07/02 00:11:00;;;;;;;3.17;1.20;;;17.10;92.00;;;;;;5051626;28;20032;-73
2022/07/02 00:13:27;;;;;;;1.42;0.98;;;17.10;92.10;;;;;;5051553;28;20033;-72
2022/07/02 00:15:54;;;;;;;1.90;1.23;;;17.00;92.00;;;;;;5052128;28;20116;-73
2022/07/02 00:18:20;;;;;;;2.50;0.95;;;17.10;92.10;;;;;;5051433;28;20044;-72
2022/07/02 00:20:47;;;;;;;3.28;1.13;;;17.00;92.10;;;;;;5051434;28;20040;-73
2022/07/02 00:23:13;;;;;;;4.00;1.27;;;17.00;92.00;;;;;;5051377;28;20025;-73
2022/07/02 00:25:53;;;;;;;4.30;1.45;;;17.00;92.40;;;;;;5051388;28;20025;-74
2022/07/02 00:28:22;;;;;;;3.70;1.38;;;16.90;92.00;;;;;;5050133;28;20458;-73
2022/07/02 00:30:48;;;;;;;4.70;1.42;;;17.00;92.10;;;;;;5051655;28;20031;-74
2022/07/02 00:33:15;;;;;;;2.13;1.05;;;16.90;92.20;;;;;;5051311;28;20033;-74
2022/07/02 00:35:42;;;;;;;4.40;1.55;;;16.90;92.30;;;;;;5051260;28;20124;-72
2022/07/02 00:38:09;;;;;;;4.20;1.38;;;16.90;92.30;;;;;;5051097;28;20108;-73
2022/07/02 00:40:35;;;;;;;1.88;1.35;;;16.80;92.40;;;;;;5050553;28;20032;-73
2022/07/02 00:43:01;;;;;;;2.20;1.23;;;16.80;92.40;;;;;;5051442;28;20068;-75
2022/07/02 00:45:27;;;;;;;3.15;1.25;;;16.80;92.50;;;;;;5051220;28;20033;-74
2022/07/02 00:47:57;;;;;;;3.80;1.52;;;16.70;92.60;;;;;;5051048;28;20447;-74
2022/07/02 00:50:24;;;;;;;4.75;1.10;;;16.70;92.70;;;;;;5049904;28;20029;-74
2022/07/02 00:52:50;;;;;;;4.13;1.13;;;16.60;92.60;;;;;;5049364;28;20080;-73
2022/07/02 00:55:15;;;;;;;6.03;1.17;;;16.60;92.60;;;;;;5049742;28;20051;-72
2022/07/02 00:57:45;;;;;;;3.88;1.67;;;16.60;92.60;;;;;;5049935;28;20029;-72
2022/07/02 01:00:16;;;;;;;4.43;1.33;;;16.60;92.60;;;;;;5049597;28;20025;-73
2022/07/02 01:02:44;;;;;;;2.92;1.15;;;16.60;92.60;;;;;;5050730;28;20434;-72
2022/07/02 01:05:13;;;;;;;4.50;1.20;;;16.50;92.80;;;;;;5050634;28;20052;-74
2022/07/02 01:07:41;;;;;;;3.17;1.20;;;16.50;92.70;;;;;;5050646;28;20055;-73
2022/07/02 01:10:17;;;;;;;4.13;1.50;;;16.40;93.00;;;;;;5050442;28;20029;-73
2022/07/02 01:12:49;;;;;;;7.22;1.45;;;16.50;93.00;;;;;;5050985;28;20013;-73
2022/07/02 01:15:16;;;;;;;3.45;1.70;;;16.40;93.10;;;;;;5050762;28;20056;-74
2022/07/02 01:17:42;;;;;;;2.50;1.30;;;16.40;93.20;;;;;;5050498;28;20144;-74
2022/07/02 01:20:09;;;;;;;3.97;1.90;;;16.40;93.10;;;;;;5050397;28;20120;-73
2022/07/02 01:22:39;;;;;;;3.33;1.70;;;16.40;93.40;;;;;;5050331;28;20343;-74
2022/07/02 01:25:06;;;;;;;2.70;1.27;;;16.40;93.30;;;;;;5050402;28;20086;-73
2022/07/02 01:27:33;;;;;;;2.20;1.33;;;16.30;93.30;;;;;;5050706;28;20027;-73
2022/07/02 01:29:59;;;;;;;3.55;1.30;;;16.20;93.40;;;;;;5050599;28;20116;-73
2022/07/02 01:32:25;;;;;;;2.65;1.25;;;16.20;93.50;;;;;;5050407;28;20097;-75
2022/07/02 01:34:54;;;;;;;3.15;1.48;;;16.10;93.70;;;;;;5050604;28;20040;-73
2022/07/02 01:37:21;;;;;;;3.55;1.58;;;16.10;93.90;;;;;;5069130;28;20545;-75
2022/07/02 01:39:48;;;;;;;3.67;1.77;;;16.10;93.80;;;;;;5070663;28;20099;-74
2022/07/02 01:42:14;;;;;;;3.40;1.88;;;16.10;94.20;;;;;;5070389;28;20033;-73
2022/07/02 01:44:41;;;;;;;4.88;1.10;;;16.10;94.10;;;;;;5070440;28;20120;-73
2022/07/02 01:47:09;;;;;;;4.22;1.30;;;16.10;94.30;;;;;;5070360;28;20174;-74
2022/07/02 01:49:36;;;;;;;3.35;1.45;;;16.00;94.50;;;;;;5070230;28;20021;-74
2022/07/02 01:52:03;;;;;;;1.80;1.20;;;16.00;94.40;;;;;;5071721;28;20020;-74
2022/07/02 01:54:29;;;;;;;5.10;1.83;;;16.00;94.60;;;;;;5074846;28;20466;-73
2022/07/02 01:56:56;;;;;;;1.52;1.05;;;16.00;94.70;;;;;;5074113;28;20036;-73
2022/07/02 01:59:22;;;;;;;3.63;1.50;;;16.00;94.70;;;;;;5073063;28;20235;-74
2022/07/02 02:01:48;;;;;;;4.10;1.50;;;15.90;94.90;;;;;;5074069;28;20036;-72
2022/07/02 02:04:13;;;;;;;3.22;1.40;;;15.90;95.00;;;;;;5074108;28;20354;-72
2022/07/02 02:06:40;;;;;;;3.40;1.63;;;15.80;95.10;;;;;;5074515;28;20125;-72
2022/07/02 02:09:06;;;;;;;4.07;2.33;;;15.90;95.30;;;;;;5073901;28;20051;-73
2022/07/02 02:11:32;;;;;;;4.47;1.70;;;15.80;95.40;;;;;;5074019;28;20059;-73
2022/07/02 02:13:58;;;;;;;5.45;1.67;;;15.80;95.30;;;;;;5073963;28;20394;-74
2022/07/02 02:16:28;;;;;;;5.35;1.65;;;15.80;95.50;;;;;;5073840;28;22741;-74
2022/07/02 02:18:56;;;;;;;3.05;1.63;;;15.80;95.40;;;;;;5074267;28;20036;-72
2022/07/02 02:21:26;;;;;;;5.68;1.77;;;15.80;95.50;;;;;;5073853;28;20174;-73
2022/07/02 02:23:53;;;;;;;4.40;1.42;;;15.80;95.50;;;;;;5072572;28;20037;-73
2022/07/02 02:26:20;;;;;;;2.30;1.33;;;15.80;95.70;;;;;;5073909;28;20029;-73
2022/07/02 02:28:46;;;;;;;2.47;1.50;;;15.80;95.80;;;;;;5072455;28;20478;-73
2022/07/02 02:31:12;;;;;;;3.70;1.52;;;15.80;95.80;;;;;;5072607;28;20032;-73
2022/07/02 02:33:37;;;;;;;3.17;1.50;;;15.70;95.70;;;;;;5073908;28;20052;-72
2022/07/02 02:36:07;;;;;;;3.40;1.40;;;15.70;95.90;;;;;;5072467;28;20533;-73
2022/07/02 02:38:36;;;;;;;4.68;1.63;;;15.60;95.80;;;;;;5073484;28;20090;-73
2022/07/02 02:41:05;;;;;;;4.68;2.10;;;15.60;95.90;;;;;;5073227;28;20032;-72
2022/07/02 02:43:33;;;;;;;2.42;1.27;;;15.60;96.00;;;;;;5073172;28;20557;-73
2022/07/02 02:45:59;;;;;;;3.13;1.60;;;15.50;96.20;;;;;;5072506;28;20365;-73
2022/07/02 02:48:24;;;;;;;4.43;1.70;;;15.50;96.10;;;;;;5073298;28;20369;-74
2022/07/02 02:50:50;;;;;;;3.70;1.80;;;15.50;96.10;;;;;;5071930;28;20032;-74
2022/07/02 02:53:16;;;;;;;2.10;1.40;;;15.50;96.20;;;;;;5071993;28;20151;-74
2022/07/02 02:55:42;;;;;;;4.43;1.83;;;15.40;96.10;;;;;;5072787;28;20068;-73
2022/07/02 02:58:08;;;;;;;6.93;1.70;;;15.40;96.00;;;;;;5071872;28;20048;-73
2022/07/02 03:00:34;;;;;;;2.92;1.60;;;15.40;96.20;;;;;;5073700;28;20048;-73
2022/07/02 03:03:00;;;;;;;3.40;1.83;;;15.30;96.30;;;;;;5072820;28;20112;-73
2022/07/02 03:05:26;;;;;;;2.97;1.73;;;15.40;96.70;;;;;;5073068;28;20036;-72
2022/07/02 03:07:51;;;;;;;3.20;1.55;;;15.30;96.40;;;;;;5072738;28;20119;-73
2022/07/02 03:10:17;;;;;;;4.35;1.73;;;15.40;96.50;;;;;;5071650;28;20621;-72
2022/07/02 03:12:43;;;;;;;3.50;1.85;;;15.30;96.40;;;;;;5073217;28;20048;-74
2022/07/02 03:15:09;;;;;;;5.97;1.70;;;15.40;96.50;;;;;;5072707;28;20032;-73
2022/07/02 03:17:34;;;;;;;4.75;1.75;;;15.30;96.70;;;;;;5072823;28;20037;-74
2022/07/02 03:20:00;;;;;;;1.98;1.63;;;15.40;96.50;;;;;;5072763;28;20033;-74
2022/07/02 03:22:26;;;;;;;3.42;2.05;;;15.40;96.70;;;;;;5071810;28;20066;-74
2022/07/02 03:24:52;;;;;;;7.45;2.17;;;15.40;96.30;;;;;;5072167;28;20024;-74
2022/07/02 03:27:18;;;;;;;4.07;1.80;;;15.30;96.30;;;;;;5072501;28;20047;-74
2022/07/02 03:29:43;;;;;;;6.18;2.20;;;15.30;96.40;;;;;;5072497;28;20025;-74
2022/07/02 03:32:09;;;;;;;6.15;2.15;;;15.30;96.70;;;;;;5072539;28;20133;-74
2022/07/02 03:34:34;;;;;;;4.22;1.92;;;15.30;96.80;;;;;;5072458;28;20028;-74
2022/07/02 03:37:00;;;;;;;2.95;1.77;;;15.30;96.70;;;;;;5072775;28;20026;-74
2022/07/02 03:39:26;;;;;;;4.07;1.92;;;15.20;96.70;;;;;;5072584;28;20358;-73
2022/07/02 03:41:51;;;;;;;2.05;1.70;;;15.20;96.80;;;;;;5071172;28;20054;-74
2022/07/02 03:44:17;;;;;;;5.22;1.80;;;15.30;96.70;;;;;;5072255;28;20447;-75
2022/07/02 03:46:43;;;;;;;3.22;1.80;;;15.30;96.90;;;;;;5072155;28;20032;-73
2022/07/02 03:49:09;;;;;;;4.47;2.22;;;15.40;96.80;;;;;;5071989;28;20110;-73
2022/07/02 03:51:34;;;;;;;5.43;2.25;;;15.30;96.50;;;;;;5072396;28;20017;-74
2022/07/02 03:54:00;;;;;;;3.72;2.08;;;15.30;96.90;;;;;;5071614;28;20125;-74
2022/07/02 03:56:26;;;;;;;4.28;2.00;;;15.30;96.70;;;;;;5072127;28;20036;-74
2022/07/02 03:58:51;;;;;;;3.25;1.95;;;15.30;96.50;;;;;;5071876;28;20419;-74
2022/07/02 04:01:17;;;;;;;2.33;2.00;;;15.30;96.50;;;;;;5071715;28;20084;-74
2022/07/02 04:03:43;;;;;;;3.88;1.83;;;15.30;96.70;;;;;;5072299;28;20021;-73
2022/07/02 04:06:09;;;;;;;7.75;2.35;;;15.30;96.50;;;;;;5070492;28;20422;-74
2022/07/02 04:08:34;;;;;;;3.60;1.85;;;15.30;96.70;;;;;;5070378;28;20043;-74
2022/07/02 04:11:00;;;;;;;4.72;2.67;;;15.30;96.90;;;;;;5070380;28;20445;-73
2022/07/02 04:13:26;;;;;;;3.67;1.90;;;15.40;97.00;;;;;;5070512;28;20036;-74
2022/07/02 04:15:51;;;;;;;7.28;2.15;;;15.40;96.80;;;;;;5071146;28;20025;-75
2022/07/02 04:18:18;;;;;;;5.07;2.28;;;15.40;96.70;;;;;;5070381;28;20028;-73
2022/07/02 04:20:44;;;;;;;2.50;2.00;;;15.40;96.80;;;;;;5071379;28;20346;-73
2022/07/02 04:23:10;;;;;;;2.80;2.00;;;15.40;96.80;;;;;;5071406;28;20052;-75
2022/07/02 04:25:37;;;;;;;5.68;2.40;;;15.50;96.70;;;;;;5071295;28;20085;-74
2022/07/02 04:28:03;;;;;;;8.73;2.20;;;15.50;96.70;;;;;;5071804;28;20465;-73
2022/07/02 04:30:28;;;;;;;2.30;1.98;;;15.50;96.50;;;;;;5071273;28;20028;-74
2022/07/02 04:32:54;;;;;;;6.75;2.38;;;15.60;96.60;;;;;;5070066;28;20035;-75
2022/07/02 04:35:20;;;;;;;3.10;2.28;;;15.60;96.60;;;;;;5071187;28;20032;-73
2022/07/02 04:37:46;;;;;;;5.95;2.15;;;15.60;96.40;;;;;;5070937;28;20078;-73
2022/07/02 04:40:11;;;;;;;5.50;1.90;;;15.70;96.60;;;;;;5071166;28;20499;-74
2022/07/02 04:42:37;;;;;;;3.45;2.05;;;15.70;96.40;;;;;;5071835;28;20046;-74
2022/07/02 04:45:04;;;;;;;2.80;2.25;;;15.70;96.50;;;;;;5071411;28;20473;-73
2022/07/02 04:47:29;;;;;;;1.92;1.58;;;15.80;96.50;;;;;;5070949;28;20541;-73
2022/07/02 04:49:55;;;;;;;3.20;1.90;;;15.80;96.40;;;;;;5070786;28;20128;-74
2022/07/02 04:52:21;;;;;;;10.45;1.77;;;15.90;96.30;;;;;;5070926;28;20037;-74
2022/07/02 04:54:47;;;;;;;4.68;2.15;;;15.90;96.10;;;;;;5071524;28;20103;-73
2022/07/02 04:57:12;;;;;;;2.17;1.90;;;16.10;96.20;;;;;;5070849;28;20040;-73
2022/07/02 04:59:38;;;;;;;3.67;1.95;;;16.00;96.10;;;;;;5070989;28;20029;-73
2022/07/02 05:02:04;;;;;;;6.45;1.70;;;16.10;96.30;;;;;;5070962;28;20025;-74
2022/07/02 05:04:30;;;;;;;2.65;1.92;;;16.10;96.00;;;;;;5071106;28;20108;-72
2022/07/02 05:06:55;;;;;;;2.58;1.63;;;16.20;95.80;;;;;;5070134;28;20048;-73
2022/07/02 05:09:23;;;;;;;4.75;2.05;;;16.30;96.00;;;;;;5070582;28;20036;-72
2022/07/02 05:11:49;;;;;;;4.28;1.85;;;16.30;95.80;;;;;;5070475;28;20032;-73
2022/07/02 05:14:14;;;;;;;3.50;1.55;;;16.40;95.80;;;;;;5070751;28;20371;-73
2022/07/02 05:16:40;;;;;;;3.35;1.80;;;16.40;95.60;;;;;;5070570;28;20075;-73
2022/07/02 05:19:06;;;;;;;6.88;2.15;;;16.50;95.50;;;;;;5070662;28;20024;-73
2022/07/02 05:21:31;;;;;;;2.67;1.75;;;16.60;95.50;;;;;;5071069;28;20477;-73
2022/07/02 05:23:57;;;;;;;1.40;1.10;;;16.70;95.40;;;;;;5069446;28;20085;-74
2022/07/02 05:26:24;;;;;;;3.78;1.30;;;16.70;95.30;;;;;;5068545;28;20047;-73
2022/07/02 05:28:50;;;;;;;4.72;1.58;;;16.80;95.10;;;;;;5070547;28;20039;-74
2022/07/02 05:31:16;;;;;;;4.15;1.88;;;16.90;95.10;;;;;;5070514;28;20028;-73
2022/07/02 05:33:42;;;;;;;4.43;1.50;;;17.00;94.90;;;;;;5070713;28;20166;-74
2022/07/02 05:36:07;;;;;;;4.28;1.40;;;17.00;94.60;;;;;;5070169;28;20035;-75
2022/07/02 05:38:33;;;;;;;2.35;1.10;;;17.20;94.70;;;;;;5070346;28;20472;-74
2022/07/02 05:40:58;;;;;;;9.30;5.15;;;17.10;94.50;;;;;;5069263;28;20485;-74
2022/07/02 05:43:24;;;;;;;6.50;2.33;;;17.20;94.40;;;;;;5070359;28;20043;-73
2022/07/02 05:45:50;;;;;;;5.80;3.03;;;17.30;94.20;;;;;;5070711;28;20028;-73
2022/07/02 05:48:16;;;;;;;5.47;1.95;;;17.40;93.90;;;;;;5070499;28;20029;-74
2022/07/02 05:50:42;;;;;;;6.85;1.77;;;17.50;93.80;;;;;;5070185;28;20465;-74
2022/07/02 05:53:07;;;;;;;7.68;2.10;;;17.50;93.80;;;;;;5069420;28;20049;-75
2022/07/02 05:55:33;;;;;;;6.05;3.35;;;17.60;93.90;;;;;;5070138;28;20059;-74
2022/07/02 05:57:59;;;;;;;8.18;4.00;;;17.80;93.80;;;;;;5069942;28;20028;-74
2022/07/02 06:00:25;;;;;;;3.13;1.55;;;17.90;93.30;;;;;;5070349;28;20029;-74
2022/07/02 06:02:50;;;;;;;2.95;1.40;;;18.00;93.10;;;;;;5070573;28;20303;-75
2022/07/02 06:08:00;;;;;;;2.67;1.27;;;18.20;92.70;;;;;;5070303;28;20040;-73
2022/07/02 06:10:26;;;;;;;5.47;3.45;;;18.30;92.70;;;;;;5070403;28;20037;-73
2022/07/02 06:12:52;;;;;;;10.63;4.72;;;18.30;92.80;;;;;;5070557;28;20094;-74
2022/07/02 06:15:20;;;;;;;4.18;1.20;;;18.40;92.30;;;;;;5070044;28;20450;-73
2022/07/02 06:17:46;;;;;;;2.20;0.80;;;18.40;92.10;;;;;;5070050;28;20032;-74
2022/07/02 06:20:13;;;;;;;3.17;0.95;;;18.40;91.90;;;;;;5069665;28;20036;-75
2022/07/02 06:22:39;;;;;;;2.55;1.08;;;18.50;91.80;;;;;;5069659;28;20040;-73
2022/07/02 06:25:07;;;;;;;1.70;1.10;;;18.50;91.90;;;;;;5068612;28;20025;-73
2022/07/02 06:27:34;;;;;;;2.65;1.05;;;18.60;91.30;;;;;;5070150;28;20031;-73
2022/07/02 06:30:09;;;;;;;1.77;0.88;;;18.70;91.30;;;;;;5068739;28;20136;-74
2022/07/02 06:32:36;;;;;;;4.78;0.80;;;18.80;91.60;;;;;;5068512;28;20036;-74
2022/07/02 06:35:02;;;;;;;5.65;0.93;;;19.00;90.90;;;;;;5068592;28;20039;-74
2022/07/02 06:37:28;;;;;;;2.25;0.88;;;19.10;90.80;;;;;;5069690;28;20139;-73
2022/07/02 06:39:54;;;;;;;7.88;2.75;;;19.20;90.00;;;;;;5073970;28;20031;-72
2022/07/02 06:42:20;;;;;;;4.57;2.42;;;19.20;90.10;;;;;;5073386;28;20028;-73
2022/07/02 06:44:47;;;;;;;3.92;1.40;;;19.30;89.90;;;;;;5072112;28;20439;-73
2022/07/02 06:47:14;;;;;;;5.20;1.02;;;19.30;90.60;;;;;;5072207;28;20037;-75
2022/07/02 06:49:39;;;;;;;7.45;0.70;;;19.40;89.90;;;;;;5073352;28;20043;-75
2022/07/02 06:52:06;;;;;;;3.65;0.70;;;19.40;87.70;;;;;;5073170;28;20025;-74
2022/07/02 06:54:32;;;;;;;1.77;0.70;;;19.40;88.40;;;;;;5073803;28;20033;-76
2022/07/02 06:56:57;;;;;;;5.07;1.27;;;19.40;86.40;;;;;;5073274;28;20442;-75
2022/07/02 06:59:23;;;;;;;6.43;2.30;;;19.40;88.10;;;;;;5073330;28;20050;-75
2022/07/02 07:01:49;;;;;;;6.05;1.08;;;19.50;86.90;;;;;;5073134;28;20121;-75
2022/07/02 07:04:14;;;;;;;4.72;0.75;;;19.60;87.10;;;;;;5073211;28;20024;-75
2022/07/02 07:06:44;;;;;;;4.50;1.60;;;19.70;86.00;;;;;;5073731;28;20035;-76
2022/07/02 07:09:10;;;;;;;7.45;1.75;;;19.80;84.90;;;;;;5073152;28;20037;-74
2022/07/02 07:11:36;;;;;;;3.13;0.80;;;19.90;85.60;;;;;;5072989;28;20366;-74
2022/07/02 07:14:01;;;;;;;2.30;0.40;;;20.00;86.70;;;;;;5073190;28;20037;-75
2022/07/02 07:16:27;;;;;;;2.15;0.50;;;20.40;80.00;;;;;;5070033;28;20352;-74
2022/07/02 07:19:00;;;;;;;2.05;0.70;;;20.80;81.30;;;;;;5074026;28;20100;-75
2022/07/02 07:21:25;;;;;;;4.70;0.90;;;21.10;81.00;;;;;;5072322;28;20032;-75
2022/07/02 07:23:51;;;;;;;4.78;1.00;;;21.10;79.50;;;;;;5073502;28;20086;-75
2022/07/02 07:26:17;;;;;;;1.35;0.60;;;21.20;78.50;;;;;;5073137;28;20025;-74
2022/07/02 07:28:43;;;;;;;6.65;0.82;;;21.20;76.50;;;;;;5073165;28;20458;-74
2022/07/02 07:31:08;;;;;;;2.40;0.45;;;21.10;75.10;;;;;;5072590;28;20047;-74
2022/07/02 07:33:34;;;;;;;1.73;0.50;;;21.10;74.20;;;;;;5073393;28;20021;-75
2022/07/02 07:36:00;;;;;;;2.70;0.63;;;21.00;74.40;;;;;;5073412;28;20043;-76
2022/07/02 07:38:26;;;;;;;4.47;0.65;;;21.10;76.40;;;;;;5072956;28;20414;-76
2022/07/02 07:40:51;;;;;;;2.53;1.00;;;21.10;76.30;;;;;;5072909;28;20032;-74
2022/07/02 07:43:19;;;;;;;1.95;0.90;;;21.00;75.30;;;;;;5072791;28;20439;-75
2022/07/02 07:45:46;;;;;;;1.85;0.75;;;21.10;76.00;;;;;;5073104;28;20040;-73
2022/07/02 07:48:15;;;;;;;3.25;0.90;;;21.20;74.90;;;;;;5071310;28;20458;-73
2022/07/02 07:50:41;;;;;;;4.07;0.75;;;21.30;76.20;;;;;;5071423;28;20209;-72
2022/07/02 07:53:07;;;;;;;9.93;3.65;;;21.50;76.90;;;;;;5072196;28;20120;-71
2022/07/02 07:55:32;;;;;;;3.80;1.48;;;21.70;78.10;;;;;;5072445;28;20028;-72
2022/07/02 07:57:58;;;;;;;3.72;0.85;;;22.00;77.10;;;;;;5072741;28;20032;-72
2022/07/02 08:00:24;;;;;;;1.45;0.80;;;22.10;77.80;;;;;;5071114;28;20021;-72
2022/07/02 08:02:50;;;;;;;5.07;0.95;;;22.20;77.00;;;;;;5072591;28;20112;-72
2022/07/02 08:05:15;;;;;;;2.90;0.90;;;22.30;76.40;;;;;;5071251;28;20025;-73
2022/07/02 08:07:41;;;;;;;4.93;1.23;;;22.40;74.70;;;;;;5072846;28;20052;-74
2022/07/02 08:10:08;;;;;;;3.83;0.63;;;22.50;74.50;;;;;;5072371;28;20537;-72
2022/07/02 08:12:34;;;;;;;2.87;0.97;;;22.70;76.00;;;;;;5071454;28;20017;-72
2022/07/02 08:15:00;;;;;;;9.18;0.90;;;23.20;75.10;;;;;;5071872;28;20035;-72
2022/07/02 08:17:29;;;;;;;3.30;0.80;;;23.90;74.00;;;;;;5071782;28;20334;-70
2022/07/02 08:19:57;;;;;;;1.48;0.52;;;24.50;72.10;;;;;;5072046;28;20024;-71
2022/07/02 08:22:23;;;;;;;2.00;0.70;;;24.90;70.50;;;;;;5070708;28;20103;-71
2022/07/02 08:24:50;;;;;;;4.47;1.70;;;25.10;69.20;;;;;;5072510;28;20029;-71
2022/07/02 08:27:16;;;;;;;2.17;1.10;;;25.00;68.80;;;;;;5071797;28;20135;-71
2022/07/02 08:29:42;;;;;;;2.38;0.77;;;25.00;69.80;;;;;;5070449;28;20120;-71
2022/07/02 08:32:08;;;;;;;3.08;1.20;;;25.00;67.70;;;;;;5071105;28;20035;-70
2022/07/02 08:34:34;;;;;;;4.10;0.90;;;25.10;69.10;;;;;;5071564;28;20025;-71
2022/07/02 08:37:00;;;;;;;6.63;1.08;;;25.60;69.10;;;;;;5070908;28;20087;-71
2022/07/02 08:39:26;;;;;;;3.75;1.10;;;25.30;64.30;;;;;;5071789;28;20782;-71
2022/07/02 08:41:57;;;;;;;4.13;0.82;;;24.90;64.90;;;;;;5071361;28;20028;-70
2022/07/02 08:44:25;;;;;;;3.40;1.90;;;25.10;65.20;;;;;;5070236;28;20374;-71
2022/07/02 08:46:51;;;;;;;5.10;1.40;;;25.30;66.70;;;;;;5071137;28;20040;-70
2022/07/02 08:49:20;;;;;;;5.15;0.93;;;25.40;64.00;;;;;;5071192;28;20017;-71
2022/07/02 08:54:21;;;;;;;16.55;9.75;;;24.90;64.80;;;;;;5071126;28;20037;-70
2022/07/02 08:56:47;;;;;;;10.90;5.57;;;24.50;63.30;;;;;;5071526;28;20040;-70
2022/07/02 08:59:13;;;;;;;2.08;1.05;;;24.30;63.80;;;;;;5071399;28;20067;-74
2022/07/02 09:01:39;;;;;;;3.80;1.13;;;24.00;63.60;;;;;;5070514;28;20067;-71
2022/07/02 09:04:05;;;;;;;5.50;1.60;;;23.90;64.20;;;;;;5070775;28;20020;-69
2022/07/02 09:06:36;;;;;;;3.03;0.98;;;23.80;63.70;;;;;;5071445;28;20362;-71
2022/07/02 09:09:02;;;;;;;3.50;1.10;;;23.70;64.00;;;;;;5069696;28;20032;-71
2022/07/02 09:11:30;;;;;;;3.00;0.98;;;23.60;63.40;;;;;;5071103;28;20067;-71
2022/07/02 09:13:57;;;;;;;4.10;1.30;;;23.60;64.40;;;;;;5070779;28;20060;-71
2022/07/02 09:16:23;;;;;;;4.55;1.52;;;23.60;64.50;;;;;;5070454;28;20032;-71
2022/07/02 09:18:48;;;;;;;3.05;0.70;;;23.50;66.10;;;;;;5071413;28;20024;-72
2022/07/02 09:21:14;;;;;;;6.05;1.00;;;23.50;65.80;;;;;;5070564;28;20101;-69
2022/07/02 09:23:52;;;;;;;5.40;0.77;;;23.50;65.20;;;;;;5070643;28;20500;-69
2022/07/02 09:26:20;;;;;;;3.63;1.05;;;23.70;64.60;;;;;;5070614;28;20473;-72
2022/07/02 09:28:59;;;;;;;5.55;0.88;;;23.80;64.70;;;;;;5071141;28;20063;-69
2022/07/02 09:31:28;;;;;;;3.58;1.00;;;24.10;63.90;;;;;;5070874;28;20040;-68
2022/07/02 09:33:55;;;;;;;3.60;0.80;;;24.30;63.00;;;;;;5070232;28;20042;-68
2022/07/02 09:36:21;;;;;;;2.97;1.40;;;24.50;62.80;;;;;;5070818;28;20029;-69
2022/07/02 09:38:49;;;;;;;1.38;0.70;;;24.70;62.20;;;;;;5069745;28;20443;-69
2022/07/02 09:41:21;;;;;;;5.72;1.13;;;24.90;62.70;;;;;;5070579;28;20036;-70
2022/07/02 09:44:00;;;;;;;3.95;0.80;;;25.10;61.10;;;;;;5070366;28;20043;-71
2022/07/02 09:46:27;;;;;;;5.35;1.00;;;25.00;60.60;;;;;;5070491;28;20051;-69
2022/07/02 09:48:53;;;;;;;4.93;1.20;;;25.30;61.80;;;;;;5071054;28;20412;-70
2022/07/02 09:51:20;;;;;;;3.20;1.05;;;25.40;60.00;;;;;;5069444;28;20029;-69
2022/07/02 09:53:53;;;;;;;3.80;1.43;;;25.60;60.20;;;;;;5070292;28;20098;-70
2022/07/02 09:56:21;;;;;;;5.03;1.10;;;25.50;61.20;;;;;;5069217;28;20348;-71
2022/07/02 09:58:47;;;;;;;2.50;1.02;;;25.40;60.60;;;;;;5070497;28;20094;-70
2022/07/02 10:01:21;;;;;;;4.80;1.33;;;25.30;60.60;;;;;;5070123;28;20099;-69
2022/07/02 10:03:51;;;;;;;5.60;2.40;;;25.40;60.50;;;;;;5070637;28;20085;-69
2022/07/02 10:06:18;;;;;;;6.80;1.00;;;25.20;60.00;;;;;;5070157;28;20063;-69
2022/07/02 10:08:44;;;;;;;8.82;0.80;;;25.00;60.60;;;;;;5068900;28;20096;-69
2022/07/02 10:11:12;;;;;;;3.42;0.90;;;25.50;62.70;;;;;;5068830;28;20386;-68
2022/07/02 10:13:42;;;;;;;2.45;0.75;;;25.70;62.40;;;;;;5071031;28;20029;-72
2022/07/02 10:16:17;;;;;;;2.70;0.93;;;25.80;60.80;;;;;;5074138;28;20032;-71
2022/07/02 10:18:44;;;;;;;2.90;1.10;;;25.70;60.50;;;;;;5074281;28;20138;-71
2022/07/02 10:21:12;;;;;;;14.32;9.63;;;25.60;60.80;;;;;;5073906;28;20129;-72
2022/07/02 10:23:43;;;;;;;2.20;0.98;;;25.60;61.30;;;;;;5072769;28;20363;-70
2022/07/02 10:26:10;;;;;;;4.00;1.40;;;25.60;60.30;;;;;;5073862;28;20235;-70
2022/07/02 10:28:36;;;;;;;1.08;0.77;;;25.70;61.00;;;;;;5073635;28;20118;-70
2022/07/02 10:31:10;;;;;;;3.58;0.95;;;25.90;61.30;;;;;;5074182;28;20063;-71
2022/07/02 10:33:46;;;;;;;2.90;0.90;;;26.00;60.00;;;;;;5073813;28;20094;-69
2022/07/02 10:36:14;;;;;;;2.92;1.13;;;25.90;59.40;;;;;;5073402;28;20025;-70
2022/07/02 10:38:40;;;;;;;4.40;0.93;;;25.80;59.50;;;;;;5073596;28;20047;-70
2022/07/02 10:41:09;;;;;;;6.43;0.80;;;25.80;59.40;;;;;;5073186;28;20150;-70
2022/07/02 10:43:39;;;;;;;1.48;0.60;;;25.90;59.70;;;;;;5072352;28;20358;-70
2022/07/02 10:46:10;;;;;;;0.98;0.52;;;25.80;58.80;;;;;;5073145;28;20021;-69
2022/07/02 10:48:58;;;;;;;3.20;0.90;;;25.90;59.20;;;;;;5073824;28;20029;-69
2022/07/02 10:51:35;;;;;;;4.80;0.70;;;25.90;58.80;;;;;;5073502;28;20040;-70
2022/07/02 10:54:06;;;;;;;1.48;0.68;;;25.70;58.70;;;;;;5071874;28;20063;-70
2022/07/02 10:56:49;;;;;;;1.67;0.85;;;25.70;58.90;;;;;;5073106;28;20037;-69
2022/07/02 10:59:22;;;;;;;1.15;0.70;;;25.60;58.60;;;;;;5072108;28;20032;-69
2022/07/02 11:01:58;;;;;;;2.28;0.90;;;25.40;59.10;;;;;;5073079;28;20502;-70
2022/07/02 11:04:24;;;;;;;1.67;0.93;;;25.50;58.60;;;;;;5072982;28;20016;-70
2022/07/02 11:06:50;;;;;;;4.90;2.38;;;25.50;58.40;;;;;;5073401;28;20044;-70
2022/07/02 11:09:15;;;;;;;3.03;1.83;;;25.50;58.30;;;;;;5072874;28;20044;-68
2022/07/02 11:11:41;;;;;;;3.20;1.60;;;25.30;58.80;;;;;;5073004;28;20548;-70
2022/07/02 11:14:16;;;;;;;3.53;2.13;;;25.60;58.40;;;;;;5072885;28;20370;-68
2022/07/02 11:16:48;;;;;;;2.65;0.68;;;25.60;58.50;;;;;;5071529;28;20409;-69
2022/07/02 11:19:13;;;;;;;8.35;0.98;;;25.60;58.90;;;;;;5071572;28;20032;-69
2022/07/02 11:21:40;;;;;;;1.95;0.77;;;25.60;60.00;;;;;;5073041;28;20032;-69
2022/07/02 11:24:07;;;;;;;2.72;0.95;;;25.60;59.40;;;;;;5072766;28;20051;-67
2022/07/02 11:26:33;;;;;;;2.35;1.00;;;25.60;59.60;;;;;;5072521;28;20129;-69
2022/07/02 11:29:04;;;;;;;2.00;0.80;;;25.50;58.70;;;;;;5072751;28;20049;-69
2022/07/02 11:31:30;;;;;;;3.10;0.90;;;25.50;59.20;;;;;;5072687;28;20525;-69
2022/07/02 11:33:56;;;;;;;1.77;0.75;;;25.60;59.70;;;;;;5072993;28;20028;-69
2022/07/02 11:36:23;;;;;;;2.00;0.80;;;25.70;59.20;;;;;;5072340;28;20036;-68
2022/07/02 11:38:50;;;;;;;2.03;0.73;;;25.80;58.90;;;;;;5071264;28;20029;-69
2022/07/02 11:41:22;;;;;;;6.55;1.25;;;25.90;59.80;;;;;;5072566;28;20430;-69
2022/07/02 11:43:50;;;;;;;3.08;0.98;;;26.00;58.90;;;;;;5072438;28;20438;-69
2022/07/02 11:46:19;;;;;;;1.05;0.95;;;26.00;59.20;;;;;;5072818;28;20016;-67
2022/07/02 11:48:46;;;;;;;3.97;0.57;;;26.00;60.00;;;;;;5073077;28;20024;-72
2022/07/02 11:51:12;;;;;;;1.63;0.68;;;26.10;58.30;;;;;;5072223;28;20032;-71
2022/07/02 11:53:38;;;;;;;2.25;0.90;;;26.20;57.90;;;;;;5070560;28;20064;-70
2022/07/02 11:56:13;;;;;;;3.95;0.80;;;26.30;58.30;;;;;;5071229;28;20105;-69
2022/07/02 11:58:43;;;;;;;1.27;0.52;;;26.30;58.10;;;;;;5072050;28;20382;-68
2022/07/02 12:01:22;;;;;;;1.90;0.82;;;26.20;56.90;;;;;;5072187;28;20112;-71
2022/07/02 12:03:49;;;;;;;3.15;0.77;;;26.20;57.20;;;;;;5071146;28;20091;-70
2022/07/02 12:06:15;;;;;;;1.58;0.75;;;26.00;57.30;;;;;;5071779;28;20029;-69
2022/07/02 12:08:42;;;;;;;2.15;0.77;;;26.00;58.00;;;;;;5071373;28;20043;-69
2022/07/02 12:11:16;;;;;;;2.33;0.82;;;26.00;58.00;;;;;;5071940;28;20154;-70
2022/07/02 12:13:43;;;;;;;2.13;0.90;;;26.10;57.70;;;;;;5071585;28;20036;-69
2022/07/02 12:16:13;;;;;;;0.85;0.57;;;26.00;57.40;;;;;;5071433;28;20024;-69
2022/07/02 12:18:40;;;;;;;4.95;3.08;;;25.90;56.30;;;;;;5071991;28;20016;-71
2022/07/02 12:21:14;;;;;;;3.33;1.83;;;26.00;57.20;;;;;;5071491;28;20025;-70
2022/07/02 12:23:50;;;;;;;2.88;1.77;;;26.00;57.20;;;;;;5071392;28;20049;-69
2022/07/02 12:26:23;;;;;;;1.27;0.47;;;25.80;57.20;;;;;;5071438;28;20619;-71
2022/07/02 12:32:14;;;;;;;2.00;0.73;;;25.80;57.40;;;;;;5071381;28;20036;-68
2022/07/02 12:34:46;;;;;;;2.47;1.48;;;25.70;57.50;;;;;;5071132;28;20147;-64
2022/07/02 12:37:32;;;;;;;2.03;0.85;;;25.60;58.80;;;;;;5069613;28;20059;-66
2022/07/02 12:39:58;;;;;;;4.38;0.80;;;25.40;57.40;;;;;;5071337;28;20474;-68
2022/07/02 12:42:25;;;;;;;1.23;0.70;;;25.50;58.80;;;;;;5070927;28;20048;-67
2022/07/02 12:45:00;;;;;;;1.48;0.63;;;25.40;58.30;;;;;;5070939;28;20199;-67
2022/07/02 12:47:39;;;;;;;3.42;0.95;;;25.30;58.40;;;;;;5071016;28;20029;-69
2022/07/02 12:50:14;;;;;;;4.10;0.98;;;25.30;58.80;;;;;;5070689;28;20035;-69
2022/07/02 12:53:08;;;;;;;1.50;0.75;;;25.20;58.10;;;;;;5070645;28;20124;-68
2022/07/02 12:55:43;;;;;;;2.15;1.02;;;25.30;58.40;;;;;;5070936;28;20029;-69